Time;durP1;ratioP1;P1;durP2;ratioP2;P2;SDS_P1;SDS_P2;PMS_P1;PMS_P2;Temp;Humidity;BMP_temperature;BMP_pressure;BME280_temperature;BME280_humidity;BME280_pressure;Samples;Min_cycle;Max_cycle;Signal;HPM_P1;HPM_P2
2022/03/16 00:02:22;;;;;;;;;;;5.10;99.90;;;;;;5051192;28;19924;-77
2022/03/16 00:04:47;;;;;;;;;;;5.00;99.90;;;;;;5037145;28;19917;-78
2022/03/16 00:07:13;;;;;;;;;;;5.00;99.90;;;;;;5035676;28;20286;-79
2022/03/16 00:09:39;;;;;;;;;;;5.00;99.90;;;;;;5049636;28;19962;-79
2022/03/16 00:12:05;;;;;;;;;;;5.00;99.90;;;;;;5050018;28;20396;-79
2022/03/16 00:14:30;;;;;;;;;;;5.00;99.90;;;;;;5051845;28;19925;-77
2022/03/16 00:16:56;;;;;;;;;;;5.00;99.90;;;;;;5051192;28;20052;-77
2022/03/16 00:19:21;;;;;;;;;;;5.10;99.90;;;;;;5033425;28;20390;-78
2022/03/16 00:21:47;;;;;;;;;;;5.10;99.90;;;;;;5050416;28;20023;-79
2022/03/16 00:24:13;;;;;;;;;;;5.10;99.90;;;;;;5051492;28;19920;-77
2022/03/16 00:26:38;;;;;;;;;;;5.00;99.90;;;;;;5051137;28;19968;-77
2022/03/16 00:29:04;;;;;;;;;;;5.00;99.90;;;;;;5050836;28;19920;-78
2022/03/16 00:31:29;;;;;;;;;;;5.00;99.90;;;;;;5033532;28;20272;-78
2022/03/16 00:33:55;;;;;;;;;;;5.00;99.90;;;;;;5048308;28;19912;-77
2022/03/16 00:36:21;;;;;;;;;;;5.00;99.90;;;;;;5050610;28;20268;-77
2022/03/16 00:38:48;;;;;;;;;;;5.00;99.90;;;;;;5025951;28;19913;-77
2022/03/16 00:41:14;;;;;;;;;;;5.00;99.90;;;;;;5050241;28;19923;-79
2022/03/16 00:43:41;;;;;;;;;;;5.00;99.90;;;;;;5046484;28;19925;-79
2022/03/16 00:46:07;;;;;;;;;;;5.00;99.90;;;;;;5050126;28;19919;-78
2022/03/16 00:48:33;;;;;;;;;;;5.00;99.90;;;;;;5019674;28;19986;-77
2022/03/16 00:50:59;;;;;;;;;;;5.00;99.90;;;;;;5004982;28;20430;-78
2022/03/16 00:53:25;;;;;;;;;;;5.00;99.90;;;;;;5033321;28;19917;-77
2022/03/16 00:55:50;;;;;;;;;;;5.10;99.90;;;;;;5050893;28;19913;-79
2022/03/16 00:58:16;;;;;;;;;;;5.00;99.90;;;;;;5050545;28;19923;-77
2022/03/16 01:00:42;;;;;;;;;;;4.90;99.90;;;;;;5033379;28;19912;-77
2022/03/16 01:03:07;;;;;;;;;;;4.80;99.90;;;;;;5033317;28;20389;-78
2022/03/16 01:05:33;;;;;;;;;;;4.80;99.90;;;;;;5032784;28;20307;-77
2022/03/16 01:07:59;;;;;;;;;;;4.70;99.90;;;;;;5047672;28;19924;-77
2022/03/16 01:10:24;;;;;;;;;;;4.70;99.90;;;;;;5031110;28;19921;-78
2022/03/16 01:12:50;;;;;;;;;;;4.70;99.90;;;;;;5032199;28;20629;-77
2022/03/16 01:15:16;;;;;;;;;;;4.70;99.90;;;;;;5050806;28;20003;-77
2022/03/16 01:17:41;;;;;;;;;;;4.70;99.90;;;;;;5033085;28;19917;-78
2022/03/16 01:20:07;;;;;;;;;;;4.70;99.90;;;;;;5032384;28;20008;-77
2022/03/16 01:22:33;;;;;;;;;;;4.70;99.90;;;;;;5032372;28;19924;-78
2022/03/16 01:24:58;;;;;;;;;;;4.60;99.90;;;;;;5051122;28;19912;-77
2022/03/16 01:27:24;;;;;;;;;;;4.60;99.90;;;;;;5049694;28;19971;-77
2022/03/16 01:29:50;;;;;;;;;;;4.60;99.90;;;;;;5032897;28;19929;-77
2022/03/16 01:32:16;;;;;;;;;;;4.60;99.90;;;;;;5029549;28;20286;-79
2022/03/16 01:34:41;;;;;;;;;;;4.60;99.90;;;;;;5029513;28;19913;-78
2022/03/16 01:37:07;;;;;;;;;;;4.60;99.90;;;;;;5015520;28;20294;-78
2022/03/16 01:39:33;;;;;;;;;;;4.60;99.90;;;;;;5032613;28;19963;-77
2022/03/16 01:41:58;;;;;;;;;;;4.60;99.90;;;;;;5050169;28;19916;-78
2022/03/16 01:44:50;;;;;;;;;;;4.60;99.90;;;;;;5046267;28;20394;-79
2022/03/16 01:47:17;;;;;;;;;;;4.60;99.90;;;;;;5040467;28;19924;-78
2022/03/16 01:49:43;;;;;;;;;;;4.60;99.90;;;;;;5045700;28;19920;-77
2022/03/16 01:52:10;;;;;;;;;;;4.60;99.90;;;;;;5032066;28;19920;-77
2022/03/16 01:54:38;;;;;;;;;;;4.70;99.90;;;;;;5020154;28;19982;-78
2022/03/16 01:57:04;;;;;;;;;;;4.70;99.90;;;;;;5024322;28;19913;-77
2022/03/16 01:59:30;;;;;;;;;;;4.70;99.90;;;;;;5010286;28;19959;-78
2022/03/16 02:01:56;;;;;;;;;;;4.70;99.90;;;;;;5029020;28;19920;-78
2022/03/16 02:04:21;;;;;;;;;;;4.70;99.90;;;;;;5028958;28;19975;-78
2022/03/16 02:06:47;;;;;;;;;;;4.70;99.90;;;;;;5012441;28;20024;-78
2022/03/16 02:09:13;;;;;;;;;;;4.70;99.90;;;;;;5038902;28;20325;-79
2022/03/16 02:11:38;;;;;;;;;;;4.70;99.90;;;;;;5050368;28;19963;-77
2022/03/16 02:14:04;;;;;;;;;;;4.70;99.90;;;;;;5032698;28;20375;-77
2022/03/16 02:16:33;;;;;;;;;;;4.70;99.90;;;;;;5049733;28;19924;-77
2022/03/16 02:18:58;;;;;;;;;;;4.70;99.90;;;;;;5047908;28;19913;-78
2022/03/16 02:21:24;;;;;;;;;;;4.70;99.90;;;;;;5025413;28;19940;-78
2022/03/16 02:23:50;;;;;;;;;;;4.70;99.90;;;;;;5031070;28;19974;-77
2022/03/16 02:26:16;;;;;;;;;;;4.70;99.90;;;;;;5044199;28;20282;-77
2022/03/16 02:28:41;;;;;;;;;;;4.70;99.90;;;;;;5052066;28;19917;-79
2022/03/16 02:31:07;;;;;;;;;;;4.70;99.90;;;;;;5026897;28;19939;-79
2022/03/16 02:33:32;;;;;;;;;;;4.70;99.90;;;;;;5034182;28;19917;-78
2022/03/16 02:35:58;;;;;;;;;;;4.70;99.90;;;;;;5053099;28;20383;-78
2022/03/16 02:38:24;;;;;;;;;;;4.70;99.90;;;;;;5053481;28;19924;-78
2022/03/16 02:40:49;;;;;;;;;;;4.70;99.90;;;;;;5019120;28;19924;-78
2022/03/16 02:43:15;;;;;;;;;;;4.70;99.90;;;;;;5019317;28;19923;-79
2022/03/16 02:45:41;;;;;;;;;;;4.70;99.90;;;;;;5051850;28;20363;-78
2022/03/16 02:48:06;;;;;;;;;;;4.70;99.90;;;;;;5035326;28;19970;-79
2022/03/16 02:50:32;;;;;;;;;;;4.70;99.90;;;;;;5047056;28;19960;-77
2022/03/16 02:52:57;;;;;;;;;;;4.70;99.90;;;;;;5053586;28;19913;-78
2022/03/16 02:55:23;;;;;;;;;;;4.70;99.90;;;;;;5053177;28;20406;-78
2022/03/16 02:57:50;;;;;;;;;;;4.70;99.90;;;;;;5052960;28;20283;-78
2022/03/16 03:00:15;;;;;;;;;;;4.70;99.90;;;;;;5053474;28;19913;-79
2022/03/16 03:02:41;;;;;;;;;;;4.70;99.90;;;;;;5019149;28;19928;-78
2022/03/16 03:05:07;;;;;;;;;;;4.70;99.90;;;;;;5054135;28;19912;-78
2022/03/16 03:07:32;;;;;;;;;;;4.70;99.90;;;;;;5033465;28;19916;-78
2022/03/16 03:09:58;;;;;;;;;;;4.70;99.90;;;;;;5035324;28;19917;-78
2022/03/16 03:12:24;;;;;;;;;;;4.70;99.90;;;;;;5052318;28;19924;-78
2022/03/16 03:14:49;;;;;;;;;;;4.70;99.90;;;;;;5053195;28;20476;-78
2022/03/16 03:17:15;;;;;;;;;;;4.70;99.90;;;;;;5052172;28;19917;-80
2022/03/16 03:19:43;;;;;;;;;;;4.60;99.90;;;;;;5017083;28;20404;-78
2022/03/16 03:22:09;;;;;;;;;;;4.60;99.90;;;;;;5043452;28;20541;-78
2022/03/16 03:24:35;;;;;;;;;;;4.60;99.90;;;;;;5034033;28;20012;-78
2022/03/16 03:27:00;;;;;;;;;;;4.60;99.90;;;;;;5014670;28;19987;-79
2022/03/16 03:29:26;;;;;;;;;;;4.60;99.90;;;;;;5045507;28;20511;-78
2022/03/16 03:31:52;;;;;;;;;;;4.60;99.90;;;;;;5033207;28;19913;-79
2022/03/16 03:34:17;;;;;;;;;;;4.60;99.90;;;;;;5028537;28;20367;-78
2022/03/16 03:36:43;;;;;;;;;;;4.60;99.90;;;;;;5033728;28;19952;-78
2022/03/16 03:39:09;;;;;;;;;;;4.60;99.90;;;;;;5013859;28;19931;-78
2022/03/16 03:41:35;;;;;;;;;;;4.60;99.90;;;;;;5036907;28;19920;-78
2022/03/16 03:44:01;;;;;;;;;;;4.60;99.90;;;;;;5052347;28;20313;-78
2022/03/16 03:46:26;;;;;;;;;;;4.60;99.90;;;;;;5035068;28;20071;-78
2022/03/16 03:48:53;;;;;;;;;;;4.60;99.90;;;;;;5014761;28;19913;-78
2022/03/16 03:51:18;;;;;;;;;;;4.60;99.90;;;;;;5027594;28;19958;-78
2022/03/16 03:53:44;;;;;;;;;;;4.50;99.90;;;;;;5034599;28;20007;-78
2022/03/16 03:56:10;;;;;;;;;;;4.50;99.90;;;;;;5046232;28;19921;-78
2022/03/16 03:58:37;;;;;;;;;;;4.50;99.90;;;;;;5034147;28;19917;-78
2022/03/16 04:01:03;;;;;;;;;;;4.50;99.90;;;;;;5028781;28;19917;-78
2022/03/16 04:03:29;;;;;;;;;;;4.50;99.90;;;;;;5014913;28;19921;-78
2022/03/16 04:05:55;;;;;;;;;;;4.50;99.90;;;;;;5032624;28;19920;-78
2022/03/16 04:08:20;;;;;;;;;;;4.50;99.90;;;;;;5050426;28;19927;-78
2022/03/16 04:10:46;;;;;;;;;;;4.40;99.90;;;;;;5051111;28;19923;-78
2022/03/16 04:13:11;;;;;;;;;;;4.40;99.90;;;;;;5034041;28;19917;-78
2022/03/16 04:15:37;;;;;;;;;;;4.40;99.90;;;;;;5039615;28;19913;-78
2022/03/16 04:18:03;;;;;;;;;;;4.40;99.90;;;;;;5029979;28;20411;-78
2022/03/16 04:20:28;;;;;;;;;;;4.30;99.90;;;;;;5033712;28;19912;-77
2022/03/16 04:22:54;;;;;;;;;;;4.30;99.90;;;;;;5032287;28;20071;-78
2022/03/16 04:25:19;;;;;;;;;;;4.30;99.90;;;;;;5033148;28;20406;-78
2022/03/16 04:27:45;;;;;;;;;;;4.30;99.90;;;;;;5051553;28;20334;-78
2022/03/16 04:30:11;;;;;;;;;;;4.20;99.90;;;;;;5051999;28;19948;-77
2022/03/16 04:32:37;;;;;;;;;;;4.30;99.90;;;;;;5032297;28;19917;-78
2022/03/16 04:35:02;;;;;;;;;;;4.20;99.90;;;;;;5051805;28;19974;-79
2022/03/16 04:37:28;;;;;;;;;;;4.20;99.90;;;;;;5050781;28;20272;-78
2022/03/16 04:39:53;;;;;;;;;;;4.30;99.90;;;;;;5017421;28;19917;-78
2022/03/16 04:42:19;;;;;;;;;;;4.30;99.90;;;;;;5050547;28;20426;-78
2022/03/16 04:44:45;;;;;;;;;;;4.20;99.90;;;;;;5049282;28;20432;-79
2022/03/16 04:47:10;;;;;;;;;;;4.20;99.90;;;;;;5050235;28;20393;-78
2022/03/16 04:49:36;;;;;;;;;;;4.20;99.90;;;;;;5021987;28;19979;-78
2022/03/16 04:52:02;;;;;;;;;;;4.20;99.90;;;;;;5033464;28;20281;-78
2022/03/16 04:54:28;;;;;;;;;;;4.20;99.90;;;;;;5032369;28;20291;-78
2022/03/16 04:56:54;;;;;;;;;;;4.10;99.90;;;;;;5032601;28;20337;-78
2022/03/16 04:59:20;;;;;;;;;;;4.10;99.90;;;;;;5050901;28;19924;-78
2022/03/16 05:01:46;;;;;;;;;;;4.10;99.90;;;;;;5015802;28;20011;-79
2022/03/16 05:04:11;;;;;;;;;;;4.10;99.90;;;;;;5050597;28;19974;-79
2022/03/16 05:06:37;;;;;;;;;;;4.10;99.90;;;;;;5032763;28;19924;-78
2022/03/16 05:09:02;;;;;;;;;;;4.20;99.90;;;;;;5024479;28;19917;-79
2022/03/16 05:11:28;;;;;;;;;;;4.20;99.90;;;;;;5033311;28;20390;-78
2022/03/16 05:13:53;;;;;;;;;;;4.20;99.90;;;;;;5027112;28;19920;-79
2022/03/16 05:16:19;;;;;;;;;;;4.20;99.90;;;;;;5050288;28;19939;-78
2022/03/16 05:18:45;;;;;;;;;;;4.30;99.90;;;;;;5050515;28;20295;-78
2022/03/16 05:21:11;;;;;;;;;;;4.30;99.90;;;;;;5031119;28;19916;-78
2022/03/16 05:23:38;;;;;;;;;;;4.30;99.90;;;;;;5030887;28;19921;-78
2022/03/16 05:26:04;;;;;;;;;;;4.30;99.90;;;;;;5030728;28;20295;-79
2022/03/16 05:28:29;;;;;;;;;;;4.30;99.90;;;;;;5041906;28;19913;-78
2022/03/16 05:30:55;;;;;;;;;;;4.30;99.90;;;;;;5033128;28;20383;-78
2022/03/16 05:33:23;;;;;;;;;;;4.30;99.90;;;;;;5031176;28;19917;-78
2022/03/16 05:35:49;;;;;;;;;;;4.30;99.90;;;;;;5015892;28;19916;-78
2022/03/16 05:38:14;;;;;;;;;;;4.30;99.90;;;;;;5029449;28;19967;-78
2022/03/16 05:40:41;;;;;;;;;;;4.30;99.90;;;;;;5019262;28;19917;-78
2022/03/16 05:43:06;;;;;;;;;;;4.30;99.90;;;;;;5032552;28;19921;-78
2022/03/16 05:45:32;;;;;;;;;;;4.30;99.90;;;;;;5047502;28;20534;-79
2022/03/16 05:47:58;;;;;;;;;;;4.30;99.90;;;;;;5001013;28;19963;-78
2022/03/16 05:50:28;;;;;;;;;;;4.30;99.90;;;;;;5044812;28;19936;-79
2022/03/16 05:52:54;;;;;;;;;;;4.30;99.90;;;;;;5016376;28;19928;-78
2022/03/16 05:55:20;;;;;;;;;;;4.30;99.90;;;;;;5032263;28;19936;-78
2022/03/16 05:57:45;;;;;;;;;;;4.30;99.90;;;;;;5041121;28;19918;-78
2022/03/16 06:00:14;;;;;;;;;;;4.30;99.90;;;;;;5013442;28;19921;-78
2022/03/16 06:02:46;;;;;;;;;;;4.30;99.90;;;;;;5047010;28;20390;-79
2022/03/16 06:05:13;;;;;;;;;;;4.40;99.90;;;;;;5052499;28;19923;-78
2022/03/16 06:07:38;;;;;;;;;;;4.40;99.90;;;;;;5036308;28;19913;-79
2022/03/16 06:10:08;;;;;;;;;;;4.40;99.90;;;;;;5035348;28;19921;-79
2022/03/16 06:12:34;;;;;;;;;;;4.40;99.90;;;;;;5053988;28;20363;-78
2022/03/16 06:15:00;;;;;;;;;;;4.50;99.90;;;;;;5054175;28;19917;-79
2022/03/16 06:17:25;;;;;;;;;;;4.50;99.90;;;;;;5046497;28;19920;-79
2022/03/16 06:19:51;;;;;;;;;;;4.50;99.90;;;;;;4994728;28;19925;-79
2022/03/16 06:22:16;;;;;;;;;;;4.50;99.90;;;;;;5032790;28;19917;-79
2022/03/16 06:24:42;;;;;;;;;;;4.60;99.90;;;;;;5034183;28;19917;-78
2022/03/16 06:27:07;;;;;;;;;;;4.60;99.90;;;;;;5052346;28;20433;-78
2022/03/16 06:29:33;;;;;;;;;;;4.70;99.90;;;;;;5035254;28;19956;-79
2022/03/16 06:31:59;;;;;;;;;;;4.80;99.90;;;;;;5034662;28;19986;-79
2022/03/16 06:34:25;;;;;;;;;;;5.00;99.90;;;;;;5053877;28;20389;-78
2022/03/16 06:36:51;;;;;;;;;;;5.20;99.90;;;;;;5031063;28;19917;-79
2022/03/16 06:39:16;;;;;;;;;;;5.40;99.90;;;;;;5016950;28;19924;-78
2022/03/16 06:41:43;;;;;;;;;;;5.60;99.90;;;;;;5043497;28;19999;-80
2022/03/16 06:44:09;;;;;;;;;;;5.80;99.90;;;;;;5030146;28;19924;-78
2022/03/16 06:46:35;;;;;;;;;;;6.00;99.90;;;;;;5035075;28;19967;-78
2022/03/16 06:49:01;;;;;;;;;;;6.20;99.90;;;;;;5051664;28;19960;-77
2022/03/16 06:51:26;;;;;;;;;;;6.30;99.90;;;;;;5053415;28;19917;-79
2022/03/16 06:53:52;;;;;;;;;;;6.40;99.90;;;;;;5052824;28;19917;-78
2022/03/16 06:56:18;;;;;;;;;;;6.50;99.90;;;;;;5035067;28;20276;-78
2022/03/16 06:58:43;;;;;;;;;;;6.70;99.90;;;;;;5018688;28;20008;-78
2022/03/16 07:01:09;;;;;;;;;;;6.80;99.90;;;;;;5034931;28;19920;-78
2022/03/16 07:03:34;;;;;;;;;;;6.90;99.90;;;;;;5050656;28;19917;-79
2022/03/16 07:06:00;;;;;;;;;;;7.00;99.90;;;;;;5034529;28;19920;-79
2022/03/16 07:08:26;;;;;;;;;;;7.20;99.90;;;;;;5045639;28;19925;-78
2022/03/16 07:10:51;;;;;;;;;;;7.40;99.90;;;;;;5011011;28;19967;-78
2022/03/16 07:13:17;;;;;;;;;;;7.60;99.90;;;;;;5033324;28;19925;-79
2022/03/16 07:15:43;;;;;;;;;;;7.80;99.90;;;;;;5052316;28;19920;-78
2022/03/16 07:18:09;;;;;;;;;;;8.00;99.90;;;;;;5052697;28;19920;-78
2022/03/16 07:20:35;;;;;;;;;;;8.20;99.90;;;;;;5050495;28;19970;-77
2022/03/16 07:23:02;;;;;;;;;;;8.40;99.90;;;;;;5046025;28;20007;-78
2022/03/16 07:25:27;;;;;;;;;;;8.70;99.90;;;;;;5052508;28;19917;-78
2022/03/16 07:27:53;;;;;;;;;;;8.80;99.90;;;;;;5041712;28;20298;-78
2022/03/16 07:30:18;;;;;;;;;;;8.80;99.90;;;;;;5052671;28;20564;-77
2022/03/16 07:32:45;;;;;;;;;;;9.00;99.90;;;;;;5055166;28;19917;-77
2022/03/16 07:35:11;;;;;;;;;;;9.10;99.90;;;;;;5052366;28;19913;-78
2022/03/16 07:37:37;;;;;;;;;;;9.10;99.90;;;;;;5047529;28;20363;-77
2022/03/16 07:40:03;;;;;;;;;;;9.10;99.90;;;;;;5032084;28;19928;-77
2022/03/16 07:42:30;;;;;;;;;;;9.10;99.90;;;;;;5050232;28;19912;-79
2022/03/16 07:44:58;;;;;;;;;;;9.00;99.90;;;;;;5032266;28;19913;-77
2022/03/16 07:47:25;;;;;;;;;;;8.90;99.90;;;;;;5050137;28;20019;-78
2022/03/16 07:49:52;;;;;;;;;;;8.70;99.90;;;;;;5056663;28;20294;-77
2022/03/16 07:52:17;;;;;;;;;;;8.70;99.90;;;;;;5047260;28;20006;-77
2022/03/16 07:54:43;;;;;;;;;;;8.70;99.90;;;;;;5052455;28;19939;-76
2022/03/16 07:57:10;;;;;;;;;;;8.80;99.90;;;;;;5033584;28;19924;-77
2022/03/16 07:59:35;;;;;;;;;;;9.00;99.90;;;;;;5034525;28;20395;-77
2022/03/16 08:02:01;;;;;;;;;;;9.00;99.90;;;;;;5033512;28;19967;-77
2022/03/16 08:04:26;;;;;;;;;;;8.90;99.90;;;;;;5016645;28;20531;-77
2022/03/16 08:06:52;;;;;;;;;;;8.80;99.90;;;;;;5051255;28;19916;-77
2022/03/16 08:09:17;;;;;;;;;;;8.70;99.90;;;;;;5017375;28;19927;-78
2022/03/16 08:11:43;;;;;;;;;;;8.70;99.90;;;;;;5034248;28;19916;-77
2022/03/16 08:14:09;;;;;;;;;;;8.80;99.90;;;;;;5052188;28;19920;-77
2022/03/16 08:16:34;;;;;;;;;;;8.90;99.90;;;;;;5051637;28;19917;-79
2022/03/16 08:19:00;;;;;;;;;;;9.10;99.90;;;;;;5045296;28;20003;-77
2022/03/16 08:21:25;;;;;;;;;;;9.20;99.90;;;;;;5043568;28;19916;-76
2022/03/16 08:23:53;;;;;;;;;;;9.20;99.90;;;;;;5045631;28;19920;-78
2022/03/16 08:26:19;;;;;;;;;;;9.10;99.90;;;;;;5029972;28;20433;-78
2022/03/16 08:28:45;;;;;;;;;;;9.10;99.90;;;;;;5017247;28;19924;-77
2022/03/16 08:31:11;;;;;;;;;;;9.10;99.90;;;;;;5051914;28;19920;-77
2022/03/16 08:33:37;;;;;;;;;;;9.10;99.90;;;;;;5019347;28;20390;-77
2022/03/16 08:36:07;;;;;;;;;;;9.10;99.90;;;;;;5017844;28;19917;-76
2022/03/16 08:38:37;;;;;;;;;;;9.10;99.90;;;;;;5017792;28;19948;-77
2022/03/16 08:41:03;;;;;;;;;;;9.00;99.90;;;;;;5048783;28;19960;-77
2022/03/16 08:43:29;;;;;;;;;;;9.10;99.90;;;;;;5032168;28;20221;-78
2022/03/16 08:45:55;;;;;;;;;;;9.10;99.90;;;;;;5051718;28;19986;-78
2022/03/16 08:48:21;;;;;;;;;;;9.10;99.90;;;;;;5045357;28;19925;-77
2022/03/16 08:50:46;;;;;;;;;;;9.10;99.90;;;;;;5031498;28;19924;-78
2022/03/16 08:53:12;;;;;;;;;;;9.10;99.90;;;;;;5035549;28;20275;-78
2022/03/16 08:55:38;;;;;;;;;;;9.10;99.90;;;;;;5036434;28;19921;-77
2022/03/16 08:58:03;;;;;;;;;;;9.00;99.90;;;;;;5032373;28;19923;-78
2022/03/16 09:00:29;;;;;;;;;;;8.90;99.90;;;;;;5032962;28;20437;-77
2022/03/16 09:02:56;;;;;;;;;;;9.00;99.90;;;;;;5032354;28;19921;-77
2022/03/16 09:05:22;;;;;;;;;;;9.00;99.90;;;;;;5048770;28;20299;-77
2022/03/16 09:07:48;;;;;;;;;;;9.10;99.90;;;;;;5050335;28;19917;-78
2022/03/16 09:10:14;;;;;;;;;;;9.20;99.90;;;;;;5046013;28;20023;-78
2022/03/16 09:12:40;;;;;;;;;;;9.20;99.90;;;;;;5049762;28;20023;-77
2022/03/16 09:15:06;;;;;;;;;;;9.20;99.90;;;;;;5049900;28;19909;-77
2022/03/16 09:17:33;;;;;;;;;;;9.30;99.90;;;;;;5049881;28;19917;-77
2022/03/16 09:19:59;;;;;;;;;;;9.30;99.90;;;;;;5050728;28;20453;-78
2022/03/16 09:22:24;;;;;;;;;;;9.20;99.90;;;;;;5032706;28;19913;-77
2022/03/16 09:24:50;;;;;;;;;;;9.20;99.90;;;;;;5032871;28;19921;-78
2022/03/16 09:27:16;;;;;;;;;;;9.10;99.90;;;;;;5049960;28;19960;-77
2022/03/16 09:29:45;;;;;;;;;;;9.00;99.90;;;;;;5011993;28;19924;-77
2022/03/16 09:32:10;;;;;;;;;;;9.00;99.90;;;;;;5018586;28;19920;-78
2022/03/16 09:34:36;;;;;;;;;;;8.90;99.90;;;;;;5041663;28;19917;-78
2022/03/16 09:37:02;;;;;;;;;;;8.90;99.90;;;;;;5046835;28;20441;-78
2022/03/16 09:39:28;;;;;;;;;;;8.80;99.90;;;;;;5027413;28;19913;-77
2022/03/16 09:41:55;;;;;;;;;;;8.80;99.90;;;;;;4997546;28;19971;-77
2022/03/16 09:44:22;;;;;;;;;;;8.80;99.90;;;;;;5031450;28;19920;-79
2022/03/16 09:46:50;;;;;;;;;;;8.80;99.90;;;;;;5012778;28;20645;-78
2022/03/16 09:49:17;;;;;;;;;;;8.70;99.90;;;;;;5014305;28;20609;-78
2022/03/16 09:51:43;;;;;;;;;;;8.70;99.90;;;;;;5050536;28;20294;-79
2022/03/16 09:54:08;;;;;;;;;;;8.80;99.90;;;;;;5048740;28;19912;-78
2022/03/16 09:56:34;;;;;;;;;;;9.00;99.90;;;;;;5038040;28;19924;-78
2022/03/16 09:59:00;;;;;;;;;;;9.00;99.90;;;;;;5027508;28;20367;-77
2022/03/16 10:01:26;;;;;;;;;;;9.10;99.90;;;;;;5012934;28;19913;-78
2022/03/16 10:03:53;;;;;;;;;;;9.10;99.90;;;;;;5029537;28;20022;-80
2022/03/16 10:06:24;;;;;;;;;;;9.20;99.90;;;;;;5044076;28;20440;-80
2022/03/16 10:14:19;;;;;;;;;;;9.40;99.90;;;;;;5049713;28;20016;-78
2022/03/16 10:19:51;;;;;;;;;;;9.50;99.90;;;;;;5044037;28;19920;-77
2022/03/16 10:22:26;;;;;;;;;;;9.70;99.90;;;;;;5050338;28;19978;-79
2022/03/16 10:24:58;;;;;;;;;;;9.70;99.90;;;;;;5029211;28;20008;-80
2022/03/16 10:27:23;;;;;;;;;;;9.80;99.90;;;;;;5044323;28;19924;-78
2022/03/16 10:29:50;;;;;;;;;;;9.80;99.90;;;;;;5033746;28;19916;-78
2022/03/16 10:32:15;;;;;;;;;;;9.80;99.90;;;;;;5049337;28;19999;-81
2022/03/16 10:34:51;;;;;;;;;;;9.80;99.90;;;;;;5046792;28;19999;-78
2022/03/16 10:37:18;;;;;;;;;;;9.70;99.90;;;;;;5028779;28;19970;-79
2022/03/16 10:39:46;;;;;;;;;;;9.80;99.90;;;;;;5048577;28;19943;-79
2022/03/16 10:48:25;;;;;;;;;;;9.80;99.90;;;;;;4966626;28;19922;-81
2022/03/16 10:51:02;;;;;;;;;;;9.80;99.90;;;;;;5048405;28;20413;-79
2022/03/16 10:53:30;;;;;;;;;;;9.80;99.90;;;;;;5024900;28;19921;-82
2022/03/16 10:55:57;;;;;;;;;;;9.90;99.90;;;;;;5044185;28;19917;-78
2022/03/16 10:58:23;;;;;;;;;;;10.00;99.90;;;;;;5048845;28;20291;-78
2022/03/16 11:00:50;;;;;;;;;;;10.20;99.90;;;;;;5050185;28;19920;-79
2022/03/16 11:03:18;;;;;;;;;;;10.30;99.90;;;;;;5044418;28;20403;-80
2022/03/16 11:05:44;;;;;;;;;;;10.30;99.90;;;;;;5047050;28;19924;-78
2022/03/16 11:08:10;;;;;;;;;;;10.40;99.90;;;;;;5045371;28;19924;-78
2022/03/16 11:10:37;;;;;;;;;;;10.40;99.90;;;;;;5037473;28;19967;-78
2022/03/16 11:15:50;;;;;;;;;;;10.50;99.90;;;;;;5044105;28;19974;-79
2022/03/16 11:18:19;;;;;;;;;;;10.50;99.90;;;;;;5041137;28;20283;-81
2022/03/16 11:20:50;;;;;;;;;;;10.60;99.90;;;;;;5043498;28;20375;-78
2022/03/16 11:26:23;;;;;;;;;;;10.80;99.90;;;;;;5045209;28;20363;-78
2022/03/16 11:29:07;;;;;;;;;;;10.80;99.90;;;;;;5014175;28;20092;-77
2022/03/16 11:31:34;;;;;;;;;;;10.80;99.90;;;;;;5040138;28;19913;-77
2022/03/16 11:34:03;;;;;;;;;;;10.70;99.90;;;;;;5029053;28;19992;-78
2022/03/16 11:36:33;;;;;;;;;;;10.70;99.90;;;;;;5024390;28;19917;-76
2022/03/16 11:38:59;;;;;;;;;;;10.80;99.90;;;;;;5049022;28;19923;-78
2022/03/16 11:41:28;;;;;;;;;;;10.80;99.90;;;;;;5030848;28;20401;-77
2022/03/16 11:44:01;;;;;;;;;;;10.80;99.90;;;;;;5042737;28;19922;-79
2022/03/16 11:46:28;;;;;;;;;;;11.00;99.90;;;;;;5042609;28;19920;-76
2022/03/16 11:49:00;;;;;;;;;;;11.00;99.90;;;;;;5033561;28;19913;-77
2022/03/16 11:51:26;;;;;;;;;;;11.10;99.90;;;;;;5016948;28;19913;-78
2022/03/16 11:54:01;;;;;;;;;;;11.20;99.90;;;;;;5010494;28;19923;-80
2022/03/16 11:56:36;;;;;;;;;;;11.30;99.90;;;;;;5037018;28;19944;-77
2022/03/16 11:59:06;;;;;;;;;;;11.40;99.90;;;;;;5047898;28;19917;-77
2022/03/16 12:01:32;;;;;;;;;;;11.60;99.90;;;;;;5035308;28;19913;-78
2022/03/16 12:04:19;;;;;;;;;;;11.70;99.90;;;;;;5020163;28;20418;-79
2022/03/16 12:06:54;;;;;;;;;;;11.70;99.90;;;;;;5045641;28;19913;-78
2022/03/16 12:09:39;;;;;;;;;;;11.70;99.90;;;;;;5047228;28;19917;-78
2022/03/16 12:15:10;;;;;;;;;;;12.00;99.90;;;;;;5043856;28;19916;-78
2022/03/16 12:17:37;;;;;;;;;;;12.10;99.90;;;;;;5014353;28;19918;-77
2022/03/16 12:20:17;;;;;;;;;;;11.90;99.90;;;;;;5085204;28;19912;-79
2022/03/16 12:22:47;;;;;;;;;;;11.70;99.90;;;;;;5080674;28;20033;-79
2022/03/16 12:25:27;;;;;;;;;;;11.70;99.90;;;;;;5078802;28;19962;-77
2022/03/16 12:30:50;;;;;;;;;;;11.60;99.90;;;;;;5079322;28;20017;-80
2022/03/16 12:33:22;;;;;;;;;;;11.80;99.90;;;;;;5070912;28;19913;-80
2022/03/16 12:35:49;;;;;;;;;;;11.70;99.90;;;;;;5078615;28;19917;-78
2022/03/16 12:38:14;;;;;;;;;;;11.60;99.90;;;;;;5075846;28;19952;-76
2022/03/16 12:42:31;;;;;;;;;;;11.70;99.90;;;;;;5074701;28;19985;-79
2022/03/16 12:43:27;;;;;;;;;;;11.70;99.90;;;;;;5066272;28;19917;-78
2022/03/16 12:46:16;;;;;;;;;;;11.80;99.90;;;;;;5073305;28;19988;-79
2022/03/16 12:48:47;;;;;;;;;;;12.00;99.90;;;;;;5077089;28;19963;-78
2022/03/16 12:51:18;;;;;;;;;;;12.10;99.90;;;;;;5066098;28;19924;-77
2022/03/16 12:53:46;;;;;;;;;;;12.10;99.90;;;;;;5070675;28;19920;-77
2022/03/16 12:56:18;;;;;;;;;;;12.10;99.90;;;;;;5070188;28;19935;-78
2022/03/16 12:58:56;;;;;;;;;;;12.10;99.90;;;;;;5083518;28;20036;-77
2022/03/16 13:01:22;;;;;;;;;;;12.00;99.90;;;;;;5086505;28;20566;-76
2022/03/16 13:03:59;;;;;;;;;;;11.80;99.90;;;;;;5049533;28;19913;-79
2022/03/16 13:06:25;;;;;;;;;;;11.70;99.90;;;;;;5080666;28;19919;-78
2022/03/16 13:08:51;;;;;;;;;;;11.70;99.90;;;;;;5075727;28;19913;-78
2022/03/16 13:11:24;;;;;;;;;;;11.80;99.90;;;;;;5076331;28;19912;-78
2022/03/16 13:14:01;;;;;;;;;;;11.70;99.90;;;;;;5079445;28;19999;-78
2022/03/16 13:16:34;;;;;;;;;;;11.70;99.90;;;;;;5068118;28;19963;-78
2022/03/16 13:19:00;;;;;;;;;;;11.70;99.90;;;;;;5090511;28;19923;-77
2022/03/16 13:21:26;;;;;;;;;;;11.70;99.90;;;;;;5094783;28;20314;-77
2022/03/16 13:24:12;;;;;;;;;;;11.70;99.90;;;;;;5106288;28;19920;-77
2022/03/16 13:26:39;;;;;;;;;;;11.70;99.90;;;;;;5100153;28;19912;-78
2022/03/16 13:29:09;;;;;;;;;;;11.70;99.90;;;;;;5101319;28;19916;-77
2022/03/16 13:31:35;;;;;;;;;;;11.70;99.90;;;;;;5073337;28;19923;-77
2022/03/16 13:34:02;;;;;;;;;;;11.80;99.90;;;;;;5083985;28;19999;-78
2022/03/16 13:36:37;;;;;;;;;;;11.80;99.90;;;;;;5086720;28;19916;-78
2022/03/16 13:39:16;;;;;;;;;;;11.80;99.90;;;;;;5091072;28;19920;-78
2022/03/16 13:42:13;;;;;;;;;;;11.90;99.90;;;;;;5093733;28;19923;-77
2022/03/16 13:44:49;;;;;;;;;;;12.00;99.90;;;;;;5063582;28;19912;-78
2022/03/16 13:47:15;;;;;;;;;;;11.90;99.90;;;;;;5089248;28;19912;-79
2022/03/16 13:49:41;;;;;;;;;;;12.00;99.90;;;;;;5093424;28;20406;-78
2022/03/16 13:52:08;;;;;;;;;;;12.20;99.90;;;;;;5087688;28;19919;-78
2022/03/16 13:54:35;;;;;;;;;;;12.20;99.90;;;;;;5092428;28;19939;-78
2022/03/16 13:57:07;;;;;;;;;;;12.30;99.90;;;;;;5073434;28;19923;-77
2022/03/16 13:59:33;;;;;;;;;;;12.20;99.90;;;;;;5085200;28;19923;-80
2022/03/16 14:02:09;;;;;;;;;;;12.20;99.90;;;;;;5091620;28;19920;-77
2022/03/16 14:04:42;;;;;;;;;;;12.10;99.90;;;;;;5083620;28;20383;-77
2022/03/16 14:07:26;;;;;;;;;;;12.10;99.90;;;;;;5087109;28;19912;-78
2022/03/16 14:09:56;;;;;;;;;;;12.10;99.90;;;;;;5071555;28;19916;-78
2022/03/16 14:12:22;;;;;;;;;;;12.10;99.90;;;;;;5072745;28;20385;-77
2022/03/16 14:14:48;;;;;;;;;;;12.10;99.90;;;;;;5076910;28;19912;-80
2022/03/16 14:17:14;;;;;;;;;;;12.10;99.90;;;;;;5081232;28;20008;-79
2022/03/16 14:19:43;;;;;;;;;;;12.00;99.90;;;;;;5094385;27;19936;-77
2022/03/16 14:22:08;;;;;;;;;;;12.00;99.90;;;;;;5081236;28;19934;-78
2022/03/16 14:24:34;;;;;;;;;;;12.00;99.90;;;;;;5088808;28;19912;-79
2022/03/16 14:27:15;;;;;;;;;;;11.90;99.90;;;;;;5090231;28;20536;-78
2022/03/16 14:29:45;;;;;;;;;;;11.90;99.90;;;;;;5072956;28;19912;-78
2022/03/16 14:32:17;;;;;;;;;;;11.90;99.90;;;;;;5076971;28;20286;-79
2022/03/16 14:34:43;;;;;;;;;;;11.90;99.90;;;;;;5085515;28;19916;-79
2022/03/16 14:37:10;;;;;;;;;;;11.80;99.90;;;;;;5069319;28;20578;-77
2022/03/16 14:39:37;;;;;;;;;;;11.90;99.90;;;;;;5063840;28;20336;-77
2022/03/16 14:42:02;;;;;;;;;;;12.00;99.90;;;;;;5084775;28;19938;-77
2022/03/16 14:44:28;;;;;;;;;;;12.00;99.90;;;;;;5084818;28;19912;-79
2022/03/16 14:46:54;;;;;;;;;;;12.00;99.90;;;;;;5088857;28;19962;-80
2022/03/16 14:49:20;;;;;;;;;;;12.00;99.90;;;;;;5091462;28;19919;-77
2022/03/16 14:51:46;;;;;;;;;;;12.00;99.50;;;;;;5089155;28;19912;-77
2022/03/16 14:54:11;;;;;;;;;;;12.00;99.60;;;;;;5074031;28;20042;-78